This is the latest recevied weather packets stored in our database for station/object DL8BNG-13. If no packets are shown the sender has not sent any weather packets the latest 1 day(s).
| Time | Temp. | Humidity | Pressure | Rain* | Wind** | Luminosity | Snow |
|---|---|---|---|---|---|---|---|
| 1778002201 | 13.89° C | 88% | - | 12.45 mm | 0 m/s | - | - |
| 1778001302 | 13.89° C | 88% | - | 12.19 mm | 0 m/s | - | - |
| 1778000403 | 13.89° C | 88% | - | 11.68 mm | 0 m/s | - | - |
| 1777999502 | 13.89° C | 87% | - | 11.18 mm | 2.68 m/s, 317° | - | - |
| 1777998602 | 13.89° C | 87% | - | 10.67 mm | 3.58 m/s, 230° | - | - |
| 1777997703 | 13.89° C | 86% | - | 9.65 mm | 2.68 m/s, 232° | - | - |
| 1777996802 | 13.89° C | 85% | - | 7.37 mm | 1.79 m/s, 242° | - | - |
| 1777995902 | 14.44° C | 82% | - | 3.81 mm | 2.68 m/s, 340° | - | - |
| 1777995003 | 14.44° C | 79% | - | 3.05 mm | 3.13 m/s, 242° | - | - |
| 1777994102 | 16.11° C | 71% | - | 1.52 mm | 3.58 m/s, 240° | - | - |
| 1777993203 | 18.89° C | 63% | - | 0.51 mm | 4.47 m/s, 222° | - | - |
| 1777992303 | 21.67° C | 50% | - | 0 mm | 1.79 m/s, 85° | - | - |
| 1777991403 | 22.78° C | 44% | - | 0 mm | 0 m/s | - | - |
| 1777990502 | 23.33° C | 42% | - | 0 mm | 0 m/s | - | - |
| 1777989602 | 23.89° C | 41% | - | 0 mm | 1.34 m/s, 105° | - | - |
| 1777988703 | 23.89° C | 41% | - | 0 mm | 1.79 m/s, 127° | - | - |
| 1777987803 | 23.89° C | 41% | - | 0 mm | 1.79 m/s, 65° | - | - |
| 1777986903 | 25° C | 39% | - | 0 mm | 0 m/s | - | - |
| 1777986003 | 25° C | 40% | - | 0 mm | 1.34 m/s, 80° | - | - |
| 1777985103 | 24.44° C | 38% | - | 0 mm | 0.89 m/s, 335° | - | - |
| 1777984202 | 24.44° C | 38% | - | 0 mm | 1.79 m/s, 172° | - | - |
| 1777983302 | 25° C | 38% | - | 0 mm | 1.34 m/s, 202° | - | - |
| 1777982402 | 25.56° C | 37% | - | 0 mm | 1.34 m/s, 220° | - | - |
| 1777981503 | 23.89° C | 40% | - | 0 mm | 2.68 m/s, 107° | - | - |
| 1777980603 | 23.89° C | 41% | - | 0 mm | 1.34 m/s, 105° | - | - |
* Rain since midnight (hover to see other rain measurements)
** Current wind speed in m/s (hover to see current wind gust speed)